sensor_id;sensor_type;location;lat;lon;timestamp;P1;durP1;ratioP1;P2;durP2;ratioP2
20367;SDS011;10343;52.402;9.796;2024-02-15T00:00:05;7.20;;;0.35;;
20367;SDS011;10343;52.402;9.796;2024-02-15T00:02:35;5.28;;;0.55;;
20367;SDS011;10343;52.402;9.796;2024-02-15T00:05:03;7.15;;;0.80;;
20367;SDS011;10343;52.402;9.796;2024-02-15T00:07:32;6.95;;;1.30;;
20367;SDS011;10343;52.402;9.796;2024-02-15T00:10:03;6.43;;;0.82;;
20367;SDS011;10343;52.402;9.796;2024-02-15T00:12:31;8.45;;;1.27;;
20367;SDS011;10343;52.402;9.796;2024-02-15T00:15:00;7.88;;;1.38;;
20367;SDS011;10343;52.402;9.796;2024-02-15T00:17:28;7.13;;;0.93;;
20367;SDS011;10343;52.402;9.796;2024-02-15T00:19:57;5.30;;;0.80;;
20367;SDS011;10343;52.402;9.796;2024-02-15T00:22:25;6.28;;;0.88;;
20367;SDS011;10343;52.402;9.796;2024-02-15T00:24:53;6.22;;;0.70;;
20367;SDS011;10343;52.402;9.796;2024-02-15T00:27:22;9.13;;;0.93;;
20367;SDS011;10343;52.402;9.796;2024-02-15T00:29:51;5.82;;;0.50;;
20367;SDS011;10343;52.402;9.796;2024-02-15T00:32:19;7.57;;;0.30;;
20367;SDS011;10343;52.402;9.796;2024-02-15T00:34:47;4.30;;;0.55;;
20367;SDS011;10343;52.402;9.796;2024-02-15T00:37:16;9.35;;;0.77;;
20367;SDS011;10343;52.402;9.796;2024-02-15T00:39:44;6.18;;;0.82;;
20367;SDS011;10343;52.402;9.796;2024-02-15T00:42:12;6.05;;;0.50;;
20367;SDS011;10343;52.402;9.796;2024-02-15T00:44:43;9.02;;;0.50;;
20367;SDS011;10343;52.402;9.796;2024-02-15T00:47:11;6.28;;;0.30;;
20367;SDS011;10343;52.402;9.796;2024-02-15T00:49:39;4.60;;;0.50;;
20367;SDS011;10343;52.402;9.796;2024-02-15T00:52:07;4.13;;;0.30;;
20367;SDS011;10343;52.402;9.796;2024-02-15T00:54:35;5.70;;;0.30;;
20367;SDS011;10343;52.402;9.796;2024-02-15T00:57:03;5.07;;;0.30;;
20367;SDS011;10343;52.402;9.796;2024-02-15T00:59:32;4.65;;;0.30;;
20367;SDS011;10343;52.402;9.796;2024-02-15T01:02:04;3.55;;;0.20;;
20367;SDS011;10343;52.402;9.796;2024-02-15T01:04:33;4.95;;;0.20;;
20367;SDS011;10343;52.402;9.796;2024-02-15T01:07:02;4.75;;;0.20;;
20367;SDS011;10343;52.402;9.796;2024-02-15T01:09:30;5.95;;;0.20;;
20367;SDS011;10343;52.402;9.796;2024-02-15T01:11:58;4.05;;;0.30;;
20367;SDS011;10343;52.402;9.796;2024-02-15T01:14:26;3.60;;;0.20;;
20367;SDS011;10343;52.402;9.796;2024-02-15T01:16:57;3.78;;;0.22;;
20367;SDS011;10343;52.402;9.796;2024-02-15T01:19:26;3.53;;;0.20;;
20367;SDS011;10343;52.402;9.796;2024-02-15T01:21:55;3.72;;;0.20;;
20367;SDS011;10343;52.402;9.796;2024-02-15T01:24:26;3.45;;;0.20;;
20367;SDS011;10343;52.402;9.796;2024-02-15T01:26:54;2.90;;;0.20;;
20367;SDS011;10343;52.402;9.796;2024-02-15T01:29:22;4.13;;;0.20;;
20367;SDS011;10343;52.402;9.796;2024-02-15T01:31:52;6.53;;;0.28;;
20367;SDS011;10343;52.402;9.796;2024-02-15T01:34:20;4.07;;;0.20;;
20367;SDS011;10343;52.402;9.796;2024-02-15T01:36:51;7.63;;;0.40;;
20367;SDS011;10343;52.402;9.796;2024-02-15T01:39:19;3.60;;;0.20;;
20367;SDS011;10343;52.402;9.796;2024-02-15T01:41:47;4.47;;;0.20;;
20367;SDS011;10343;52.402;9.796;2024-02-15T01:44:17;5.75;;;0.20;;
20367;SDS011;10343;52.402;9.796;2024-02-15T01:46:47;3.40;;;0.20;;
20367;SDS011;10343;52.402;9.796;2024-02-15T01:49:16;3.95;;;0.20;;
20367;SDS011;10343;52.402;9.796;2024-02-15T01:51:44;4.47;;;0.20;;
20367;SDS011;10343;52.402;9.796;2024-02-15T01:54:15;3.47;;;0.20;;
20367;SDS011;10343;52.402;9.796;2024-02-15T01:56:43;4.30;;;0.20;;
20367;SDS011;10343;52.402;9.796;2024-02-15T01:59:13;3.83;;;0.32;;
20367;SDS011;10343;52.402;9.796;2024-02-15T02:01:44;3.30;;;0.20;;
20367;SDS011;10343;52.402;9.796;2024-02-15T02:04:12;3.95;;;0.20;;
20367;SDS011;10343;52.402;9.796;2024-02-15T02:06:40;2.97;;;0.15;;
20367;SDS011;10343;52.402;9.796;2024-02-15T02:09:09;2.83;;;0.10;;
20367;SDS011;10343;52.402;9.796;2024-02-15T02:11:41;1.55;;;0.10;;
20367;SDS011;10343;52.402;9.796;2024-02-15T02:14:12;2.25;;;0.10;;
20367;SDS011;10343;52.402;9.796;2024-02-15T02:16:40;1.27;;;0.10;;
20367;SDS011;10343;52.402;9.796;2024-02-15T02:19:08;1.13;;;0.10;;
20367;SDS011;10343;52.402;9.796;2024-02-15T02:21:37;4.25;;;0.10;;
20367;SDS011;10343;52.402;9.796;2024-02-15T02:24:08;3.33;;;0.10;;
20367;SDS011;10343;52.402;9.796;2024-02-15T02:26:42;1.05;;;0.10;;
20367;SDS011;10343;52.402;9.796;2024-02-15T02:29:10;1.88;;;0.03;;
20367;SDS011;10343;52.402;9.796;2024-02-15T02:31:39;1.50;;;0.10;;
20367;SDS011;10343;52.402;9.796;2024-02-15T02:34:09;1.55;;;0.10;;
20367;SDS011;10343;52.402;9.796;2024-02-15T02:36:37;1.95;;;0.10;;
20367;SDS011;10343;52.402;9.796;2024-02-15T02:39:07;1.75;;;0.10;;
20367;SDS011;10343;52.402;9.796;2024-02-15T02:41:35;1.48;;;0.10;;
20367;SDS011;10343;52.402;9.796;2024-02-15T02:44:05;1.02;;;0.10;;
20367;SDS011;10343;52.402;9.796;2024-02-15T02:46:33;2.55;;;0.10;;
20367;SDS011;10343;52.402;9.796;2024-02-15T02:49:01;0.55;;;0.10;;
20367;SDS011;10343;52.402;9.796;2024-02-15T02:51:29;1.65;;;0.10;;
20367;SDS011;10343;52.402;9.796;2024-02-15T02:53:58;3.55;;;0.10;;
20367;SDS011;10343;52.402;9.796;2024-02-15T02:56:25;1.73;;;0.10;;
20367;SDS011;10343;52.402;9.796;2024-02-15T02:58:54;1.30;;;0.10;;
20367;SDS011;10343;52.402;9.796;2024-02-15T03:01:23;2.05;;;0.10;;
20367;SDS011;10343;52.402;9.796;2024-02-15T03:03:53;1.38;;;0.10;;
20367;SDS011;10343;52.402;9.796;2024-02-15T03:06:21;1.45;;;0.10;;
20367;SDS011;10343;52.402;9.796;2024-02-15T03:08:51;1.23;;;0.08;;
20367;SDS011;10343;52.402;9.796;2024-02-15T03:11:21;1.27;;;0.10;;
20367;SDS011;10343;52.402;9.796;2024-02-15T03:13:49;1.25;;;0.10;;
20367;SDS011;10343;52.402;9.796;2024-02-15T03:16:17;1.60;;;0.10;;
20367;SDS011;10343;52.402;9.796;2024-02-15T03:18:51;1.65;;;0.10;;
20367;SDS011;10343;52.402;9.796;2024-02-15T03:21:20;0.85;;;0.10;;
20367;SDS011;10343;52.402;9.796;2024-02-15T03:23:48;1.20;;;0.10;;
20367;SDS011;10343;52.402;9.796;2024-02-15T03:26:21;0.50;;;0.10;;
20367;SDS011;10343;52.402;9.796;2024-02-15T03:28:56;2.05;;;0.10;;
20367;SDS011;10343;52.402;9.796;2024-02-15T03:31:24;5.30;;;0.10;;
20367;SDS011;10343;52.402;9.796;2024-02-15T03:33:54;0.93;;;0.10;;
20367;SDS011;10343;52.402;9.796;2024-02-15T03:36:22;2.40;;;0.10;;
20367;SDS011;10343;52.402;9.796;2024-02-15T03:38:52;0.60;;;0.05;;
20367;SDS011;10343;52.402;9.796;2024-02-15T03:41:20;1.35;;;0.10;;
20367;SDS011;10343;52.402;9.796;2024-02-15T03:43:48;0.90;;;0.10;;
20367;SDS011;10343;52.402;9.796;2024-02-15T03:46:17;5.78;;;0.10;;
20367;SDS011;10343;52.402;9.796;2024-02-15T03:48:45;1.92;;;0.10;;
20367;SDS011;10343;52.402;9.796;2024-02-15T03:51:17;3.33;;;0.10;;
20367;SDS011;10343;52.402;9.796;2024-02-15T03:53:47;1.38;;;0.10;;
20367;SDS011;10343;52.402;9.796;2024-02-15T03:56:15;1.25;;;0.10;;
20367;SDS011;10343;52.402;9.796;2024-02-15T03:58:43;1.42;;;0.10;;
20367;SDS011;10343;52.402;9.796;2024-02-15T04:01:12;2.67;;;0.10;;
20367;SDS011;10343;52.402;9.796;2024-02-15T04:03:42;1.25;;;0.10;;
20367;SDS011;10343;52.402;9.796;2024-02-15T04:06:11;1.48;;;0.10;;
20367;SDS011;10343;52.402;9.796;2024-02-15T04:08:40;0.88;;;0.00;;
20367;SDS011;10343;52.402;9.796;2024-02-15T04:11:08;0.63;;;0.00;;
20367;SDS011;10343;52.402;9.796;2024-02-15T04:13:36;1.02;;;0.10;;
20367;SDS011;10343;52.402;9.796;2024-02-15T04:16:05;1.25;;;0.10;;
20367;SDS011;10343;52.402;9.796;2024-02-15T04:18:34;1.95;;;0.10;;
20367;SDS011;10343;52.402;9.796;2024-02-15T04:21:02;0.90;;;0.10;;
20367;SDS011;10343;52.402;9.796;2024-02-15T04:23:32;1.85;;;0.10;;
20367;SDS011;10343;52.402;9.796;2024-02-15T04:26:02;1.25;;;0.10;;
20367;SDS011;10343;52.402;9.796;2024-02-15T04:28:30;1.65;;;0.10;;
20367;SDS011;10343;52.402;9.796;2024-02-15T04:31:00;1.33;;;0.10;;
20367;SDS011;10343;52.402;9.796;2024-02-15T04:33:28;1.02;;;0.10;;
20367;SDS011;10343;52.402;9.796;2024-02-15T04:35:56;1.27;;;0.10;;
20367;SDS011;10343;52.402;9.796;2024-02-15T04:38:27;0.55;;;0.03;;
20367;SDS011;10343;52.402;9.796;2024-02-15T04:40:55;2.03;;;0.10;;
20367;SDS011;10343;52.402;9.796;2024-02-15T04:43:25;1.05;;;0.10;;
20367;SDS011;10343;52.402;9.796;2024-02-15T04:45:53;1.50;;;0.00;;
20367;SDS011;10343;52.402;9.796;2024-02-15T04:48:22;1.88;;;0.10;;
20367;SDS011;10343;52.402;9.796;2024-02-15T04:50:51;3.13;;;0.08;;
20367;SDS011;10343;52.402;9.796;2024-02-15T04:53:21;1.73;;;0.08;;
20367;SDS011;10343;52.402;9.796;2024-02-15T04:55:49;1.63;;;0.10;;
20367;SDS011;10343;52.402;9.796;2024-02-15T04:58:18;1.10;;;0.10;;
20367;SDS011;10343;52.402;9.796;2024-02-15T05:00:47;1.38;;;0.10;;
20367;SDS011;10343;52.402;9.796;2024-02-15T05:03:20;1.42;;;0.10;;
20367;SDS011;10343;52.402;9.796;2024-02-15T05:05:48;1.10;;;0.10;;
20367;SDS011;10343;52.402;9.796;2024-02-15T05:08:17;1.35;;;0.10;;
20367;SDS011;10343;52.402;9.796;2024-02-15T05:10:45;2.05;;;0.10;;
20367;SDS011;10343;52.402;9.796;2024-02-15T05:13:13;1.60;;;0.10;;
20367;SDS011;10343;52.402;9.796;2024-02-15T05:15:43;1.17;;;0.10;;
20367;SDS011;10343;52.402;9.796;2024-02-15T05:18:13;0.93;;;0.08;;
20367;SDS011;10343;52.402;9.796;2024-02-15T05:20:41;2.90;;;0.10;;
20367;SDS011;10343;52.402;9.796;2024-02-15T05:23:09;2.13;;;0.10;;
20367;SDS011;10343;52.402;9.796;2024-02-15T05:25:38;0.88;;;0.00;;
20367;SDS011;10343;52.402;9.796;2024-02-15T05:28:08;1.58;;;0.10;;
20367;SDS011;10343;52.402;9.796;2024-02-15T05:30:36;0.88;;;0.10;;
20367;SDS011;10343;52.402;9.796;2024-02-15T05:33:06;2.80;;;0.10;;
20367;SDS011;10343;52.402;9.796;2024-02-15T05:35:38;2.63;;;0.10;;
20367;SDS011;10343;52.402;9.796;2024-02-15T05:38:08;1.35;;;0.10;;
20367;SDS011;10343;52.402;9.796;2024-02-15T05:40:38;2.17;;;0.10;;
20367;SDS011;10343;52.402;9.796;2024-02-15T05:43:06;1.95;;;0.10;;
20367;SDS011;10343;52.402;9.796;2024-02-15T05:45:34;1.27;;;0.10;;
20367;SDS011;10343;52.402;9.796;2024-02-15T05:48:04;3.28;;;0.10;;
20367;SDS011;10343;52.402;9.796;2024-02-15T05:50:35;2.33;;;0.10;;
20367;SDS011;10343;52.402;9.796;2024-02-15T05:53:05;2.50;;;0.10;;
20367;SDS011;10343;52.402;9.796;2024-02-15T05:55:35;1.88;;;0.10;;
20367;SDS011;10343;52.402;9.796;2024-02-15T05:58:04;1.27;;;0.10;;
20367;SDS011;10343;52.402;9.796;2024-02-15T06:00:32;3.47;;;0.10;;
20367;SDS011;10343;52.402;9.796;2024-02-15T06:03:01;2.15;;;0.10;;
20367;SDS011;10343;52.402;9.796;2024-02-15T06:05:30;2.80;;;0.10;;
20367;SDS011;10343;52.402;9.796;2024-02-15T06:07:59;1.67;;;0.10;;
20367;SDS011;10343;52.402;9.796;2024-02-15T06:10:28;3.33;;;0.10;;
20367;SDS011;10343;52.402;9.796;2024-02-15T06:12:57;2.00;;;0.10;;
20367;SDS011;10343;52.402;9.796;2024-02-15T06:15:26;4.57;;;0.10;;
20367;SDS011;10343;52.402;9.796;2024-02-15T06:17:54;4.40;;;0.10;;
20367;SDS011;10343;52.402;9.796;2024-02-15T06:20:24;2.17;;;0.10;;
20367;SDS011;10343;52.402;9.796;2024-02-15T06:22:55;1.73;;;0.10;;
20367;SDS011;10343;52.402;9.796;2024-02-15T06:25:23;2.00;;;0.10;;
20367;SDS011;10343;52.402;9.796;2024-02-15T06:27:53;4.10;;;0.10;;
20367;SDS011;10343;52.402;9.796;2024-02-15T06:30:26;3.05;;;0.20;;
20367;SDS011;10343;52.402;9.796;2024-02-15T06:33:11;4.10;;;0.20;;
20367;SDS011;10343;52.402;9.796;2024-02-15T06:35:57;4.30;;;0.20;;
20367;SDS011;10343;52.402;9.796;2024-02-15T06:38:43;3.05;;;0.20;;
20367;SDS011;10343;52.402;9.796;2024-02-15T06:41:29;5.72;;;0.30;;
20367;SDS011;10343;52.402;9.796;2024-02-15T06:43:59;6.22;;;0.20;;
20367;SDS011;10343;52.402;9.796;2024-02-15T06:46:27;5.40;;;0.30;;
20367;SDS011;10343;52.402;9.796;2024-02-15T06:48:55;8.35;;;0.38;;
20367;SDS011;10343;52.402;9.796;2024-02-15T06:51:25;8.80;;;0.55;;
20367;SDS011;10343;52.402;9.796;2024-02-15T06:53:53;4.20;;;0.20;;
20367;SDS011;10343;52.402;9.796;2024-02-15T06:56:23;5.20;;;0.30;;
20367;SDS011;10343;52.402;9.796;2024-02-15T06:58:51;6.70;;;0.20;;
20367;SDS011;10343;52.402;9.796;2024-02-15T07:01:23;4.38;;;0.20;;
20367;SDS011;10343;52.402;9.796;2024-02-15T07:03:52;6.00;;;0.40;;
20367;SDS011;10343;52.402;9.796;2024-02-15T07:06:24;5.22;;;0.30;;
20367;SDS011;10343;52.402;9.796;2024-02-15T07:08:54;7.10;;;0.30;;
20367;SDS011;10343;52.402;9.796;2024-02-15T07:11:23;5.38;;;0.40;;
20367;SDS011;10343;52.402;9.796;2024-02-15T07:13:51;9.43;;;0.82;;
20367;SDS011;10343;52.402;9.796;2024-02-15T07:16:22;6.07;;;0.60;;
20367;SDS011;10343;52.402;9.796;2024-02-15T07:18:50;9.75;;;1.17;;
20367;SDS011;10343;52.402;9.796;2024-02-15T07:21:19;9.88;;;0.98;;
20367;SDS011;10343;52.402;9.796;2024-02-15T07:23:53;8.35;;;0.60;;
20367;SDS011;10343;52.402;9.796;2024-02-15T07:26:21;7.50;;;1.05;;
20367;SDS011;10343;52.402;9.796;2024-02-15T07:28:51;7.72;;;0.70;;
20367;SDS011;10343;52.402;9.796;2024-02-15T07:31:20;10.20;;;1.20;;
20367;SDS011;10343;52.402;9.796;2024-02-15T07:33:51;17.67;;;1.73;;
20367;SDS011;10343;52.402;9.796;2024-02-15T07:36:20;10.85;;;0.93;;
20367;SDS011;10343;52.402;9.796;2024-02-15T07:38:49;10.20;;;0.47;;
20367;SDS011;10343;52.402;9.796;2024-02-15T07:41:18;7.43;;;0.85;;
20367;SDS011;10343;52.402;9.796;2024-02-15T07:43:48;6.50;;;0.60;;
20367;SDS011;10343;52.402;9.796;2024-02-15T07:46:17;9.80;;;0.45;;
20367;SDS011;10343;52.402;9.796;2024-02-15T07:48:45;10.95;;;0.85;;
20367;SDS011;10343;52.402;9.796;2024-02-15T07:51:15;9.27;;;1.10;;
20367;SDS011;10343;52.402;9.796;2024-02-15T07:53:45;11.45;;;0.70;;
20367;SDS011;10343;52.402;9.796;2024-02-15T07:56:14;7.43;;;0.60;;
20367;SDS011;10343;52.402;9.796;2024-02-15T07:58:43;9.65;;;0.93;;
20367;SDS011;10343;52.402;9.796;2024-02-15T08:01:18;5.57;;;0.40;;
20367;SDS011;10343;52.402;9.796;2024-02-15T08:03:48;11.15;;;1.10;;
20367;SDS011;10343;52.402;9.796;2024-02-15T08:06:16;9.40;;;0.88;;
20367;SDS011;10343;52.402;9.796;2024-02-15T08:08:45;9.68;;;0.63;;
20367;SDS011;10343;52.402;9.796;2024-02-15T08:11:14;7.82;;;0.40;;
20367;SDS011;10343;52.402;9.796;2024-02-15T08:13:45;5.25;;;0.30;;
20367;SDS011;10343;52.402;9.796;2024-02-15T08:16:16;6.72;;;0.40;;
20367;SDS011;10343;52.402;9.796;2024-02-15T08:18:44;4.35;;;0.20;;
20367;SDS011;10343;52.402;9.796;2024-02-15T08:21:13;7.20;;;0.20;;
20367;SDS011;10343;52.402;9.796;2024-02-15T08:23:43;4.97;;;0.10;;
20367;SDS011;10343;52.402;9.796;2024-02-15T08:26:11;3.42;;;0.10;;
20367;SDS011;10343;52.402;9.796;2024-02-15T08:28:39;8.63;;;0.10;;
20367;SDS011;10343;52.402;9.796;2024-02-15T08:31:07;3.33;;;0.10;;
20367;SDS011;10343;52.402;9.796;2024-02-15T08:33:36;1.40;;;0.00;;
20367;SDS011;10343;52.402;9.796;2024-02-15T08:36:05;3.13;;;0.00;;
20367;SDS011;10343;52.402;9.796;2024-02-15T08:38:37;2.05;;;0.00;;
20367;SDS011;10343;52.402;9.796;2024-02-15T08:41:06;2.47;;;0.10;;
20367;SDS011;10343;52.402;9.796;2024-02-15T08:43:35;3.97;;;0.00;;
20367;SDS011;10343;52.402;9.796;2024-02-15T08:46:06;2.05;;;0.00;;
20367;SDS011;10343;52.402;9.796;2024-02-15T08:48:34;1.65;;;0.00;;
20367;SDS011;10343;52.402;9.796;2024-02-15T08:51:03;0.63;;;0.00;;
20367;SDS011;10343;52.402;9.796;2024-02-15T08:53:32;1.60;;;0.00;;
20367;SDS011;10343;52.402;9.796;2024-02-15T08:56:00;0.20;;;0.00;;
20367;SDS011;10343;52.402;9.796;2024-02-15T08:58:30;0.68;;;0.00;;
20367;SDS011;10343;52.402;9.796;2024-02-15T09:00:58;2.03;;;0.00;;
20367;SDS011;10343;52.402;9.796;2024-02-15T09:03:26;1.50;;;0.00;;
20367;SDS011;10343;52.402;9.796;2024-02-15T09:05:54;1.08;;;0.00;;
20367;SDS011;10343;52.402;9.796;2024-02-15T09:08:24;2.90;;;0.00;;
20367;SDS011;10343;52.402;9.796;2024-02-15T09:10:52;2.25;;;0.00;;
20367;SDS011;10343;52.402;9.796;2024-02-15T09:13:20;1.00;;;0.00;;
20367;SDS011;10343;52.402;9.796;2024-02-15T09:15:50;1.20;;;0.00;;
20367;SDS011;10343;52.402;9.796;2024-02-15T09:18:18;2.72;;;0.00;;
20367;SDS011;10343;52.402;9.796;2024-02-15T09:20:49;1.23;;;0.00;;
20367;SDS011;10343;52.402;9.796;2024-02-15T09:23:22;0.47;;;0.00;;
20367;SDS011;10343;52.402;9.796;2024-02-15T09:25:50;0.65;;;0.00;;
20367;SDS011;10343;52.402;9.796;2024-02-15T09:28:20;0.40;;;0.00;;
20367;SDS011;10343;52.402;9.796;2024-02-15T09:30:50;0.10;;;0.00;;
20367;SDS011;10343;52.402;9.796;2024-02-15T09:33:19;0.25;;;0.00;;
20367;SDS011;10343;52.402;9.796;2024-02-15T09:35:48;2.85;;;0.00;;
20367;SDS011;10343;52.402;9.796;2024-02-15T09:38:15;3.55;;;0.00;;
20367;SDS011;10343;52.402;9.796;2024-02-15T09:40:48;0.90;;;0.00;;
20367;SDS011;10343;52.402;9.796;2024-02-15T09:43:16;0.95;;;0.00;;
20367;SDS011;10343;52.402;9.796;2024-02-15T09:45:44;1.80;;;0.00;;
20367;SDS011;10343;52.402;9.796;2024-02-15T09:48:16;3.40;;;0.00;;
20367;SDS011;10343;52.402;9.796;2024-02-15T09:50:47;1.70;;;0.00;;
20367;SDS011;10343;52.402;9.796;2024-02-15T09:53:20;1.90;;;0.00;;
20367;SDS011;10343;52.402;9.796;2024-02-15T09:55:48;0.85;;;0.00;;
20367;SDS011;10343;52.402;9.796;2024-02-15T09:58:17;1.88;;;0.00;;
20367;SDS011;10343;52.402;9.796;2024-02-15T10:00:45;1.33;;;0.00;;
20367;SDS011;10343;52.402;9.796;2024-02-15T10:03:13;0.10;;;0.00;;
20367;SDS011;10343;52.402;9.796;2024-02-15T10:05:47;3.63;;;0.00;;
20367;SDS011;10343;52.402;9.796;2024-02-15T10:08:16;1.08;;;0.00;;
20367;SDS011;10343;52.402;9.796;2024-02-15T10:10:44;6.25;;;0.00;;
20367;SDS011;10343;52.402;9.796;2024-02-15T10:13:12;2.92;;;0.00;;
20367;SDS011;10343;52.402;9.796;2024-02-15T10:15:41;0.30;;;0.00;;
20367;SDS011;10343;52.402;9.796;2024-02-15T10:18:11;1.25;;;0.00;;
20367;SDS011;10343;52.402;9.796;2024-02-15T10:20:41;5.30;;;0.00;;
20367;SDS011;10343;52.402;9.796;2024-02-15T10:23:11;1.08;;;0.00;;
20367;SDS011;10343;52.402;9.796;2024-02-15T10:25:44;1.35;;;0.00;;
20367;SDS011;10343;52.402;9.796;2024-02-15T10:28:14;4.10;;;0.00;;
20367;SDS011;10343;52.402;9.796;2024-02-15T10:30:50;2.17;;;0.00;;
20367;SDS011;10343;52.402;9.796;2024-02-15T10:33:25;1.95;;;0.00;;
20367;SDS011;10343;52.402;9.796;2024-02-15T10:36:06;2.42;;;0.00;;
20367;SDS011;10343;52.402;9.796;2024-02-15T10:38:35;3.20;;;0.30;;
20367;SDS011;10343;52.402;9.796;2024-02-15T10:41:03;2.38;;;0.00;;
20367;SDS011;10343;52.402;9.796;2024-02-15T10:43:33;0.73;;;0.00;;
20367;SDS011;10343;52.402;9.796;2024-02-15T10:46:04;1.33;;;0.00;;
20367;SDS011;10343;52.402;9.796;2024-02-15T10:48:36;1.30;;;0.00;;
20367;SDS011;10343;52.402;9.796;2024-02-15T10:51:09;0.22;;;0.00;;
20367;SDS011;10343;52.402;9.796;2024-02-15T10:53:39;1.05;;;0.00;;
20367;SDS011;10343;52.402;9.796;2024-02-15T10:56:15;2.05;;;0.00;;
20367;SDS011;10343;52.402;9.796;2024-02-15T10:58:46;3.40;;;0.17;;
20367;SDS011;10343;52.402;9.796;2024-02-15T11:01:17;1.05;;;0.00;;
20367;SDS011;10343;52.402;9.796;2024-02-15T11:03:50;0.52;;;0.00;;
20367;SDS011;10343;52.402;9.796;2024-02-15T11:06:21;1.80;;;0.00;;
20367;SDS011;10343;52.402;9.796;2024-02-15T11:08:51;0.32;;;0.00;;
20367;SDS011;10343;52.402;9.796;2024-02-15T11:11:20;0.82;;;0.00;;
20367;SDS011;10343;52.402;9.796;2024-02-15T11:13:49;3.53;;;0.00;;
20367;SDS011;10343;52.402;9.796;2024-02-15T11:19:07;3.08;;;0.00;;
20367;SDS011;10343;52.402;9.796;2024-02-15T11:24:26;2.08;;;0.00;;
20367;SDS011;10343;52.402;9.796;2024-02-15T11:26:57;0.95;;;0.00;;
20367;SDS011;10343;52.402;9.796;2024-02-15T11:29:47;4.50;;;0.00;;
20367;SDS011;10343;52.402;9.796;2024-02-15T11:32:36;1.17;;;0.00;;
20367;SDS011;10343;52.402;9.796;2024-02-15T11:35:06;2.47;;;0.00;;
20367;SDS011;10343;52.402;9.796;2024-02-15T11:43:46;1.02;;;0.00;;
20367;SDS011;10343;52.402;9.796;2024-02-15T11:46:26;1.52;;;0.00;;
20367;SDS011;10343;52.402;9.796;2024-02-15T11:48:57;2.42;;;0.00;;
20367;SDS011;10343;52.402;9.796;2024-02-15T11:51:28;4.75;;;0.00;;
20367;SDS011;10343;52.402;9.796;2024-02-15T11:54:02;4.85;;;0.00;;
20367;SDS011;10343;52.402;9.796;2024-02-15T11:56:49;1.20;;;0.00;;
20367;SDS011;10343;52.402;9.796;2024-02-15T11:59:21;2.72;;;0.00;;
20367;SDS011;10343;52.402;9.796;2024-02-15T12:01:58;5.38;;;0.00;;
20367;SDS011;10343;52.402;9.796;2024-02-15T12:04:44;0.73;;;0.00;;
20367;SDS011;10343;52.402;9.796;2024-02-15T12:07:32;1.80;;;0.00;;
20367;SDS011;10343;52.402;9.796;2024-02-15T12:10:19;1.23;;;0.00;;
20367;SDS011;10343;52.402;9.796;2024-02-15T12:13:20;1.50;;;0.00;;
20367;SDS011;10343;52.402;9.796;2024-02-15T12:16:05;1.83;;;0.00;;
20367;SDS011;10343;52.402;9.796;2024-02-15T12:18:50;2.13;;;0.00;;
20367;SDS011;10343;52.402;9.796;2024-02-15T12:21:23;0.55;;;0.00;;
20367;SDS011;10343;52.402;9.796;2024-02-15T12:23:53;2.35;;;0.00;;
20367;SDS011;10343;52.402;9.796;2024-02-15T12:26:22;2.65;;;0.00;;
20367;SDS011;10343;52.402;9.796;2024-02-15T12:28:51;2.63;;;0.00;;
20367;SDS011;10343;52.402;9.796;2024-02-15T12:31:21;1.02;;;0.00;;
20367;SDS011;10343;52.402;9.796;2024-02-15T12:33:59;0.80;;;0.00;;
20367;SDS011;10343;52.402;9.796;2024-02-15T12:36:29;0.75;;;0.00;;
20367;SDS011;10343;52.402;9.796;2024-02-15T12:39:00;0.45;;;0.00;;
20367;SDS011;10343;52.402;9.796;2024-02-15T12:41:30;2.17;;;0.03;;
20367;SDS011;10343;52.402;9.796;2024-02-15T12:43:58;1.00;;;0.00;;
20367;SDS011;10343;52.402;9.796;2024-02-15T12:46:28;0.35;;;0.00;;
20367;SDS011;10343;52.402;9.796;2024-02-15T12:49:09;0.85;;;0.00;;
20367;SDS011;10343;52.402;9.796;2024-02-15T12:51:40;0.00;;;0.00;;
20367;SDS011;10343;52.402;9.796;2024-02-15T12:54:19;1.10;;;0.00;;
20367;SDS011;10343;52.402;9.796;2024-02-15T12:56:49;0.20;;;0.00;;
20367;SDS011;10343;52.402;9.796;2024-02-15T12:59:18;0.10;;;0.00;;
20367;SDS011;10343;52.402;9.796;2024-02-15T13:01:47;0.38;;;0.00;;
20367;SDS011;10343;52.402;9.796;2024-02-15T13:04:21;0.52;;;0.00;;
20367;SDS011;10343;52.402;9.796;2024-02-15T13:06:50;1.08;;;0.00;;
20367;SDS011;10343;52.402;9.796;2024-02-15T13:09:18;0.50;;;0.00;;
20367;SDS011;10343;52.402;9.796;2024-02-15T13:11:50;3.92;;;0.00;;
20367;SDS011;10343;52.402;9.796;2024-02-15T13:14:20;2.70;;;0.00;;
20367;SDS011;10343;52.402;9.796;2024-02-15T13:16:48;2.40;;;0.00;;
20367;SDS011;10343;52.402;9.796;2024-02-15T13:19:16;0.20;;;0.00;;
20367;SDS011;10343;52.402;9.796;2024-02-15T13:21:44;0.55;;;0.00;;
20367;SDS011;10343;52.402;9.796;2024-02-15T13:24:19;0.10;;;0.00;;
20367;SDS011;10343;52.402;9.796;2024-02-15T13:26:53;2.03;;;0.00;;
20367;SDS011;10343;52.402;9.796;2024-02-15T13:29:25;0.00;;;0.00;;
20367;SDS011;10343;52.402;9.796;2024-02-15T13:31:53;0.88;;;0.00;;
20367;SDS011;10343;52.402;9.796;2024-02-15T13:34:21;0.10;;;0.00;;
20367;SDS011;10343;52.402;9.796;2024-02-15T13:36:49;2.03;;;0.00;;
20367;SDS011;10343;52.402;9.796;2024-02-15T13:39:17;0.38;;;0.00;;
20367;SDS011;10343;52.402;9.796;2024-02-15T13:41:48;4.72;;;0.00;;
20367;SDS011;10343;52.402;9.796;2024-02-15T13:44:18;0.00;;;0.00;;
20367;SDS011;10343;52.402;9.796;2024-02-15T13:46:46;0.05;;;0.00;;
20367;SDS011;10343;52.402;9.796;2024-02-15T13:49:16;0.30;;;0.00;;
20367;SDS011;10343;52.402;9.796;2024-02-15T13:51:55;0.93;;;0.00;;
20367;SDS011;10343;52.402;9.796;2024-02-15T13:54:28;0.45;;;0.00;;
20367;SDS011;10343;52.402;9.796;2024-02-15T13:56:56;1.70;;;0.00;;
20367;SDS011;10343;52.402;9.796;2024-02-15T13:59:27;0.93;;;0.00;;
20367;SDS011;10343;52.402;9.796;2024-02-15T14:01:55;0.47;;;0.00;;
20367;SDS011;10343;52.402;9.796;2024-02-15T14:04:24;0.00;;;0.00;;
20367;SDS011;10343;52.402;9.796;2024-02-15T14:06:53;0.50;;;0.00;;
20367;SDS011;10343;52.402;9.796;2024-02-15T14:09:23;0.63;;;0.00;;
20367;SDS011;10343;52.402;9.796;2024-02-15T14:11:53;1.00;;;0.00;;
20367;SDS011;10343;52.402;9.796;2024-02-15T14:14:21;0.08;;;0.00;;
20367;SDS011;10343;52.402;9.796;2024-02-15T14:16:50;0.75;;;0.00;;
20367;SDS011;10343;52.402;9.796;2024-02-15T14:19:19;0.85;;;0.00;;
20367;SDS011;10343;52.402;9.796;2024-02-15T14:21:47;1.35;;;0.00;;
20367;SDS011;10343;52.402;9.796;2024-02-15T14:24:15;0.38;;;0.00;;
20367;SDS011;10343;52.402;9.796;2024-02-15T14:26:45;0.30;;;0.00;;
20367;SDS011;10343;52.402;9.796;2024-02-15T14:29:13;0.10;;;0.00;;
20367;SDS011;10343;52.402;9.796;2024-02-15T14:31:42;0.17;;;0.00;;
20367;SDS011;10343;52.402;9.796;2024-02-15T14:34:32;1.35;;;0.00;;
20367;SDS011;10343;52.402;9.796;2024-02-15T14:37:02;0.73;;;0.00;;
20367;SDS011;10343;52.402;9.796;2024-02-15T14:39:32;6.35;;;0.00;;
20367;SDS011;10343;52.402;9.796;2024-02-15T14:42:00;1.08;;;0.00;;
20367;SDS011;10343;52.402;9.796;2024-02-15T14:44:28;0.10;;;0.00;;
20367;SDS011;10343;52.402;9.796;2024-02-15T14:46:56;0.52;;;0.00;;
20367;SDS011;10343;52.402;9.796;2024-02-15T14:49:23;1.38;;;0.00;;
20367;SDS011;10343;52.402;9.796;2024-02-15T14:51:53;0.95;;;0.00;;
20367;SDS011;10343;52.402;9.796;2024-02-15T14:54:20;0.90;;;0.00;;
20367;SDS011;10343;52.402;9.796;2024-02-15T14:56:49;2.38;;;0.00;;
20367;SDS011;10343;52.402;9.796;2024-02-15T14:59:17;0.32;;;0.00;;
20367;SDS011;10343;52.402;9.796;2024-02-15T15:01:45;0.05;;;0.00;;
20367;SDS011;10343;52.402;9.796;2024-02-15T15:04:13;1.48;;;0.00;;
20367;SDS011;10343;52.402;9.796;2024-02-15T15:06:43;0.75;;;0.00;;
20367;SDS011;10343;52.402;9.796;2024-02-15T15:09:31;1.73;;;0.00;;
20367;SDS011;10343;52.402;9.796;2024-02-15T15:12:16;0.30;;;0.00;;
20367;SDS011;10343;52.402;9.796;2024-02-15T15:15:02;0.28;;;0.00;;
20367;SDS011;10343;52.402;9.796;2024-02-15T15:17:31;0.52;;;0.00;;